Craig Beach, Ohio
Current Conditions -  °F | °C
As of 5:15 PM on Sunday 25 Jan 2015 (Local Time) from KPOV Reporting Station
Light Snow Light Snow  
Wind Chill: 13°   Ceiling: 3500
Heat Index: 24°   Visibility: 5mi
Dew Point: 18°   Wind: 10mph
Humidity: 80%   Direction: 40°NE
Pressure: 29.81"   Gusts: NA
Location:  41.099°N, 80.9784°W
Report Text: KPOV 252215Z AUTO 04009KT 5SM -SN OVC035 M05/M08 A2981 RMK AO2 T10471076
Loading
Personal Weather Stations






























Interactive Weather Map New forecast layout! Learn more

10-Day Weather Forecast

Advertisements
Track Severe Weather on mobile